Time;durP1;ratioP1;P1;durP2;ratioP2;P2;SDS_P1;SDS_P2;PMS_P1;PMS_P2;Temp;Humidity;BMP_temperature;BMP_pressure;BME280_temperature;BME280_humidity;BME280_pressure;Samples;Min_cycle;Max_cycle;Signal;HPM_P1;HPM_P2
2020/12/31 00:01:19;;;;;;;8.03;6.60;;;4.20;99.90;;;;;;4989704;28;20253;-77
2020/12/31 00:03:45;;;;;;;8.23;7.43;;;4.30;99.90;;;;;;4973582;28;20445;-78
2020/12/31 00:06:10;;;;;;;8.93;6.83;;;4.20;99.90;;;;;;4989092;28;20214;-77
2020/12/31 00:08:36;;;;;;;7.17;6.47;;;4.20;99.90;;;;;;4989371;28;20167;-77
2020/12/31 00:11:02;;;;;;;9.53;7.03;;;4.20;99.90;;;;;;4989945;28;20219;-77
2020/12/31 00:13:27;;;;;;;8.53;7.53;;;4.40;99.90;;;;;;4980219;28;20222;-77
2020/12/31 00:15:54;;;;;;;8.30;6.87;;;4.30;99.90;;;;;;4990832;28;20222;-77
2020/12/31 00:18:20;;;;;;;7.40;6.68;;;4.20;99.90;;;;;;4983709;28;20174;-77
2020/12/31 00:20:46;;;;;;;7.17;6.47;;;4.20;99.90;;;;;;4976668;28;20290;-77
2020/12/31 00:23:12;;;;;;;12.57;7.03;;;4.20;99.90;;;;;;4986650;28;20683;-77
2020/12/31 00:25:47;;;;;;;9.40;6.47;;;4.20;99.90;;;;;;4996132;28;20230;-77
2020/12/31 00:28:13;;;;;;;8.05;6.97;;;4.20;99.90;;;;;;4975126;28;20187;-77
2020/12/31 00:30:38;;;;;;;9.17;6.67;;;4.20;99.90;;;;;;4981001;28;20218;-77
2020/12/31 00:33:04;;;;;;;11.87;6.93;;;4.20;99.90;;;;;;4989893;28;20666;-76
2020/12/31 00:35:30;;;;;;;8.30;5.77;;;4.20;99.90;;;;;;4990692;28;20258;-77
2020/12/31 00:37:56;;;;;;;7.17;6.30;;;4.20;99.90;;;;;;4983352;28;20178;-77
2020/12/31 00:40:24;;;;;;;8.53;6.47;;;4.30;99.90;;;;;;4988947;28;20439;-78
2020/12/31 00:42:50;;;;;;;8.93;7.38;;;4.20;99.90;;;;;;4982409;28;20197;-77
2020/12/31 00:45:16;;;;;;;6.90;5.10;;;4.10;99.90;;;;;;4996665;28;20178;-77
2020/12/31 00:47:41;;;;;;;7.83;5.47;;;4.10;99.90;;;;;;4988774;28;20237;-77
2020/12/31 00:50:07;;;;;;;8.27;5.50;;;4.10;99.90;;;;;;4993970;28;20397;-77
2020/12/31 00:52:33;;;;;;;7.97;6.10;;;4.10;99.90;;;;;;4989326;28;20221;-78
2020/12/31 00:54:58;;;;;;;6.93;5.13;;;4.10;99.90;;;;;;4990607;28;20277;-77
2020/12/31 00:57:24;;;;;;;6.07;5.47;;;4.10;99.90;;;;;;4985507;28;20246;-77
2020/12/31 00:59:50;;;;;;;9.33;5.97;;;4.10;99.90;;;;;;4979869;28;20602;-78
2020/12/31 01:02:16;;;;;;;7.07;6.13;;;4.00;99.90;;;;;;4986155;28;20708;-77
2020/12/31 01:04:41;;;;;;;7.63;6.23;;;4.00;99.90;;;;;;4988622;28;20181;-77
2020/12/31 01:07:07;;;;;;;8.30;6.23;;;3.90;99.90;;;;;;4976249;28;20261;-77
2020/12/31 01:09:33;;;;;;;6.53;5.83;;;4.00;99.90;;;;;;4972386;28;20171;-77
2020/12/31 01:11:58;;;;;;;6.80;6.10;;;4.00;99.90;;;;;;4979146;28;20215;-77
2020/12/31 01:14:24;;;;;;;8.10;6.30;;;4.00;99.90;;;;;;4979097;28;20167;-77
2020/12/31 01:16:50;;;;;;;8.20;6.40;;;4.00;99.90;;;;;;4988092;28;20241;-77
2020/12/31 01:19:16;;;;;;;6.78;6.13;;;4.00;99.90;;;;;;4991846;28;20194;-78
2020/12/31 01:21:45;;;;;;;7.75;4.65;;;4.10;99.90;;;;;;4990725;28;20281;-77
2020/12/31 01:24:12;;;;;;;5.38;4.60;;;4.10;99.90;;;;;;4983229;28;20538;-77
2020/12/31 01:26:38;;;;;;;6.88;5.80;;;4.10;99.90;;;;;;4971428;28;20226;-78
2020/12/31 01:29:04;;;;;;;8.93;5.57;;;4.10;99.90;;;;;;4983368;28;20195;-77
2020/12/31 01:31:30;;;;;;;6.88;6.18;;;4.10;99.90;;;;;;4988861;28;20254;-77
2020/12/31 01:33:56;;;;;;;6.47;4.90;;;4.10;99.90;;;;;;4981806;28;20199;-77
2020/12/31 01:36:22;;;;;;;6.03;4.95;;;4.10;99.90;;;;;;4999086;28;20488;-77
2020/12/31 01:38:48;;;;;;;5.55;4.80;;;4.10;99.90;;;;;;4999678;28;20234;-77
2020/12/31 01:41:14;;;;;;;6.97;5.70;;;4.10;99.90;;;;;;4996227;28;20250;-77
2020/12/31 01:43:40;;;;;;;5.30;4.45;;;4.10;99.90;;;;;;4980515;28;20214;-77
2020/12/31 01:46:12;;;;;;;5.50;4.95;;;4.20;99.90;;;;;;4997009;28;20705;-77
2020/12/31 01:48:39;;;;;;;6.88;5.95;;;4.20;99.90;;;;;;4997848;28;20221;-77
2020/12/31 01:51:05;;;;;;;5.97;4.38;;;4.20;99.90;;;;;;4983609;28;20237;-77
2020/12/31 01:53:31;;;;;;;6.10;4.37;;;4.30;99.90;;;;;;4998462;28;20194;-77
2020/12/31 01:56:00;;;;;;;7.67;5.73;;;4.20;99.90;;;;;;4982323;28;20458;-77
2020/12/31 01:58:26;;;;;;;5.90;4.10;;;4.30;99.90;;;;;;4984914;28;20418;-76
2020/12/31 02:00:51;;;;;;;7.50;5.50;;;4.30;99.90;;;;;;4987454;28;20707;-77
2020/12/31 02:03:17;;;;;;;6.27;4.70;;;4.30;99.90;;;;;;4986088;28;20198;-77
2020/12/31 02:05:44;;;;;;;4.73;4.17;;;4.20;99.90;;;;;;4982186;28;20211;-77
2020/12/31 02:08:10;;;;;;;9.40;5.95;;;4.20;99.90;;;;;;4982767;28;20181;-77
2020/12/31 02:10:35;;;;;;;4.73;4.10;;;4.20;99.90;;;;;;4985103;28;20549;-77
2020/12/31 02:13:01;;;;;;;5.63;4.27;;;4.20;99.90;;;;;;4993627;28;20194;-77
2020/12/31 02:15:28;;;;;;;4.03;3.70;;;4.20;99.90;;;;;;4992923;28;20203;-77
2020/12/31 02:17:54;;;;;;;4.72;4.20;;;4.20;99.90;;;;;;4995086;28;20629;-78
2020/12/31 02:20:19;;;;;;;6.00;5.13;;;4.20;99.90;;;;;;4981253;28;20175;-77
2020/12/31 02:22:45;;;;;;;4.93;4.50;;;4.20;99.90;;;;;;4992088;28;20202;-77
2020/12/31 02:25:11;;;;;;;4.43;3.80;;;4.20;99.90;;;;;;4982936;28;20183;-77
2020/12/31 02:27:37;;;;;;;5.07;4.20;;;4.10;99.90;;;;;;4982280;28;20211;-78
2020/12/31 02:30:03;;;;;;;5.20;4.17;;;4.10;99.90;;;;;;4982800;28;20665;-78
2020/12/31 02:32:29;;;;;;;5.80;4.22;;;4.20;99.90;;;;;;4992736;28;20218;-78
2020/12/31 02:34:54;;;;;;;4.80;3.93;;;4.20;99.90;;;;;;4981194;28;20194;-78
2020/12/31 02:37:20;;;;;;;3.80;3.37;;;4.20;99.90;;;;;;4978200;28;20285;-77
2020/12/31 02:39:46;;;;;;;4.57;3.50;;;4.20;99.90;;;;;;4987579;28;20183;-78
2020/12/31 02:42:12;;;;;;;4.50;4.10;;;4.30;99.90;;;;;;4983765;28;20210;-78
2020/12/31 02:44:37;;;;;;;3.57;3.27;;;4.30;99.90;;;;;;4988581;28;20441;-78
2020/12/31 02:47:03;;;;;;;3.70;3.30;;;4.30;99.90;;;;;;4984035;28;20211;-77
2020/12/31 02:49:29;;;;;;;3.70;3.20;;;4.30;99.90;;;;;;4979292;28;20226;-77
2020/12/31 02:51:54;;;;;;;3.77;3.37;;;4.30;99.90;;;;;;4985132;28;20233;-77
2020/12/31 02:54:20;;;;;;;7.30;3.50;;;4.20;99.90;;;;;;4979633;28;20171;-77
2020/12/31 02:56:46;;;;;;;5.07;4.57;;;4.20;99.90;;;;;;4982313;28;20230;-77
2020/12/31 02:59:11;;;;;;;4.23;3.13;;;4.10;99.90;;;;;;4987039;28;20179;-77
2020/12/31 03:01:37;;;;;;;3.33;3.03;;;4.10;99.90;;;;;;4997057;28;20222;-77
2020/12/31 03:04:03;;;;;;;5.23;3.10;;;4.10;99.90;;;;;;4979319;28;20187;-77
2020/12/31 03:06:29;;;;;;;5.00;3.00;;;4.10;99.90;;;;;;4982963;28;20206;-78
2020/12/31 03:08:55;;;;;;;7.00;3.43;;;4.20;99.90;;;;;;4983897;28;20850;-78
2020/12/31 03:11:22;;;;;;;3.67;3.20;;;4.20;99.90;;;;;;4978136;28;20210;-78
2020/12/31 03:13:49;;;;;;;4.10;3.30;;;4.20;99.90;;;;;;4992491;28;20569;-77
2020/12/31 03:16:16;;;;;;;4.72;3.55;;;4.20;99.90;;;;;;4973154;28;20239;-78
2020/12/31 03:18:42;;;;;;;6.00;4.38;;;4.20;99.90;;;;;;4978789;28;20178;-78
2020/12/31 03:21:09;;;;;;;5.47;3.93;;;4.30;99.90;;;;;;4986339;28;20301;-78
2020/12/31 03:23:35;;;;;;;5.70;3.20;;;4.30;99.90;;;;;;4982294;28;20433;-77
2020/12/31 03:26:01;;;;;;;5.20;3.55;;;4.30;99.90;;;;;;4984754;28;20297;-77
2020/12/31 03:28:27;;;;;;;3.97;3.50;;;4.20;99.90;;;;;;4996119;28;20270;-77
2020/12/31 03:30:53;;;;;;;6.83;3.60;;;4.20;99.90;;;;;;4995105;28;20219;-77
2020/12/31 03:33:18;;;;;;;4.80;3.72;;;4.20;99.90;;;;;;4992109;28;20195;-77
2020/12/31 03:35:47;;;;;;;6.23;3.67;;;4.20;99.90;;;;;;4976062;28;20720;-77
2020/12/31 03:38:13;;;;;;;3.22;2.90;;;4.10;99.90;;;;;;4983369;28;20182;-77
2020/12/31 03:40:39;;;;;;;4.93;3.22;;;4.20;99.90;;;;;;4991219;28;20221;-77
2020/12/31 03:43:07;;;;;;;4.32;3.35;;;4.20;99.90;;;;;;4991713;28;20205;-78
2020/12/31 03:45:32;;;;;;;4.90;3.00;;;4.20;99.90;;;;;;4977534;28;20920;-78
2020/12/31 03:47:59;;;;;;;3.83;3.43;;;4.20;99.90;;;;;;4985128;28;20181;-78
2020/12/31 03:50:25;;;;;;;3.15;2.88;;;4.20;99.90;;;;;;4979027;28;20435;-78
2020/12/31 03:52:50;;;;;;;4.13;2.73;;;4.10;99.90;;;;;;4974348;28;20303;-78
2020/12/31 03:55:17;;;;;;;3.47;2.33;;;4.20;99.90;;;;;;4981634;28;20657;-77
2020/12/31 03:57:43;;;;;;;3.72;2.78;;;4.20;99.90;;;;;;4991067;28;20202;-78
2020/12/31 04:00:09;;;;;;;3.47;2.92;;;4.20;99.90;;;;;;4985354;28;20279;-78
2020/12/31 04:02:35;;;;;;;3.53;2.95;;;4.20;99.90;;;;;;4972664;28;20230;-77
2020/12/31 04:05:01;;;;;;;3.87;2.83;;;4.10;99.90;;;;;;4972689;28;20645;-78
2020/12/31 04:07:27;;;;;;;2.60;2.30;;;4.10;99.90;;;;;;4973321;28;20257;-78
2020/12/31 04:09:52;;;;;;;2.37;2.17;;;4.10;99.90;;;;;;4972905;28;20218;-78
2020/12/31 04:12:18;;;;;;;3.03;2.73;;;4.10;99.90;;;;;;4974158;28;20998;-78
2020/12/31 04:14:44;;;;;;;3.10;2.80;;;4.20;99.90;;;;;;4971134;28;20213;-77
2020/12/31 04:17:11;;;;;;;2.67;2.47;;;4.20;99.90;;;;;;4971377;28;20458;-78
2020/12/31 04:19:39;;;;;;;2.78;2.58;;;4.30;99.90;;;;;;4971388;28;20411;-78
2020/12/31 04:22:05;;;;;;;3.00;2.70;;;4.20;99.90;;;;;;4971673;28;21408;-78
2020/12/31 04:24:31;;;;;;;3.23;2.93;;;4.20;99.90;;;;;;4970369;28;20182;-78
2020/12/31 04:26:56;;;;;;;4.13;3.07;;;4.10;99.90;;;;;;4971569;28;20465;-78
2020/12/31 04:29:22;;;;;;;4.20;2.70;;;4.00;99.90;;;;;;4972588;28;20182;-78
2020/12/31 04:31:48;;;;;;;2.87;2.57;;;4.00;99.90;;;;;;4971693;28;20551;-78
2020/12/31 04:34:14;;;;;;;3.30;2.97;;;4.00;99.90;;;;;;4976419;28;20566;-78
2020/12/31 04:36:39;;;;;;;2.87;2.67;;;4.10;99.90;;;;;;4974549;28;20274;-77
2020/12/31 04:39:06;;;;;;;3.77;3.07;;;4.10;99.90;;;;;;4973477;28;20177;-78
2020/12/31 04:41:32;;;;;;;3.65;3.25;;;4.00;99.90;;;;;;4971816;28;20578;-78
2020/12/31 04:43:58;;;;;;;3.97;2.63;;;3.90;99.90;;;;;;4974720;28;20274;-78
2020/12/31 04:46:26;;;;;;;3.15;2.78;;;4.00;99.90;;;;;;4970939;28;20213;-78
2020/12/31 04:49:04;;;;;;;3.15;2.85;;;4.00;99.90;;;;;;4970315;28;20658;-78
2020/12/31 04:51:34;;;;;;;3.00;2.70;;;4.00;99.90;;;;;;4971107;28;20238;-78
2020/12/31 04:54:01;;;;;;;4.63;3.72;;;3.90;99.90;;;;;;4972450;28;20190;-78
2020/12/31 04:56:33;;;;;;;3.42;2.58;;;3.90;99.90;;;;;;4970541;28;20219;-78
2020/12/31 04:58:59;;;;;;;3.25;2.72;;;3.90;99.90;;;;;;4974853;28;20265;-78
2020/12/31 05:01:24;;;;;;;2.63;2.43;;;4.00;99.90;;;;;;4971252;28;20628;-78
2020/12/31 05:03:50;;;;;;;6.37;2.53;;;3.90;99.90;;;;;;4976218;28;20605;-78
2020/12/31 05:06:18;;;;;;;3.27;2.97;;;3.90;99.90;;;;;;4977754;28;20215;-78
2020/12/31 05:08:45;;;;;;;3.17;2.70;;;4.00;99.90;;;;;;4976341;28;20255;-78
2020/12/31 05:11:11;;;;;;;6.35;3.35;;;3.90;99.90;;;;;;4973230;28;20231;-78
2020/12/31 05:13:47;;;;;;;3.90;3.50;;;3.90;99.90;;;;;;4976916;28;20194;-78
2020/12/31 05:16:13;;;;;;;3.13;2.85;;;3.90;99.90;;;;;;4977869;28;20246;-78
2020/12/31 05:18:39;;;;;;;3.65;3.33;;;3.80;99.90;;;;;;4974922;28;20175;-78
2020/12/31 05:21:15;;;;;;;3.50;3.10;;;3.80;99.90;;;;;;4976027;28;20210;-78
2020/12/31 05:23:44;;;;;;;3.78;3.28;;;3.80;99.90;;;;;;4975913;28;20983;-78
2020/12/31 05:26:10;;;;;;;4.43;3.55;;;3.80;99.90;;;;;;4975766;28;20298;-79
2020/12/31 05:28:37;;;;;;;3.42;3.13;;;3.80;99.90;;;;;;4976435;28;20618;-78
2020/12/31 05:31:11;;;;;;;5.45;3.67;;;3.80;99.90;;;;;;4976883;28;20219;-79
2020/12/31 05:33:39;;;;;;;3.10;2.80;;;3.80;99.90;;;;;;4974694;28;20584;-79
2020/12/31 05:36:28;;;;;;;4.40;3.67;;;3.90;99.90;;;;;;4975731;28;20222;-78
2020/12/31 05:38:57;;;;;;;2.90;2.60;;;3.90;99.90;;;;;;4974645;28;20258;-78
2020/12/31 05:41:24;;;;;;;2.72;2.53;;;3.80;99.90;;;;;;4987307;28;20214;-78
2020/12/31 05:43:55;;;;;;;3.25;2.92;;;3.80;99.90;;;;;;4975830;28;20198;-79
2020/12/31 05:46:21;;;;;;;2.58;2.38;;;3.80;99.90;;;;;;4974940;28;20290;-78
2020/12/31 05:49:09;;;;;;;3.25;2.90;;;3.70;99.90;;;;;;4975894;28;20258;-78
2020/12/31 05:51:40;;;;;;;3.00;2.53;;;3.80;99.90;;;;;;4974434;28;20212;-79
2020/12/31 05:54:09;;;;;;;3.55;2.75;;;3.80;99.90;;;;;;4975058;28;20898;-79
2020/12/31 05:56:37;;;;;;;3.25;2.50;;;3.80;99.90;;;;;;4977176;28;20245;-79
2020/12/31 05:59:19;;;;;;;5.88;2.60;;;3.80;99.90;;;;;;4977638;28;20179;-79
2020/12/31 06:01:57;;;;;;;2.50;2.22;;;3.70;99.90;;;;;;4982375;28;20399;-79
2020/12/31 06:04:29;;;;;;;2.90;2.60;;;3.70;99.90;;;;;;4982241;28;20171;-78
2020/12/31 06:06:59;;;;;;;2.45;2.22;;;3.80;99.90;;;;;;4990970;28;20299;-78
2020/12/31 06:09:29;;;;;;;3.13;2.38;;;3.70;99.90;;;;;;4990159;28;20665;-78
2020/12/31 06:11:58;;;;;;;2.50;1.90;;;3.70;99.90;;;;;;4980470;28;20206;-79
2020/12/31 06:14:31;;;;;;;2.90;2.25;;;3.70;99.90;;;;;;4989708;28;20642;-78
2020/12/31 06:17:03;;;;;;;2.35;2.15;;;3.70;99.90;;;;;;4988189;28;20230;-79
2020/12/31 06:19:34;;;;;;;3.58;2.67;;;3.80;99.90;;;;;;4978817;28;20181;-79
2020/12/31 06:22:02;;;;;;;4.65;3.40;;;3.70;99.90;;;;;;4986040;28;20256;-80
2020/12/31 06:24:36;;;;;;;3.92;3.47;;;3.70;99.90;;;;;;4974320;28;20207;-78
2020/12/31 06:27:13;;;;;;;4.03;3.35;;;3.70;99.90;;;;;;4979760;28;20210;-78
2020/12/31 06:29:50;;;;;;;4.10;2.72;;;3.70;99.90;;;;;;4988088;28;20201;-79
2020/12/31 06:32:26;;;;;;;3.70;3.10;;;3.70;99.90;;;;;;4980021;28;20245;-79
2020/12/31 06:35:17;;;;;;;3.28;2.97;;;3.70;99.90;;;;;;4980703;28;20197;-80
2020/12/31 06:37:56;;;;;;;3.75;2.55;;;3.70;99.90;;;;;;4979788;28;20270;-78
2020/12/31 06:40:30;;;;;;;2.63;2.35;;;3.70;99.90;;;;;;4991978;28;20201;-78
2020/12/31 06:43:07;;;;;;;2.97;2.60;;;3.70;99.90;;;;;;4978348;28;20278;-79
2020/12/31 06:45:42;;;;;;;2.40;2.05;;;3.70;99.90;;;;;;4978907;28;20167;-79
2020/12/31 06:48:26;;;;;;;2.85;2.30;;;3.60;99.90;;;;;;4985429;28;20218;-79
2020/12/31 06:51:03;;;;;;;2.13;1.90;;;3.60;99.90;;;;;;4988437;28;20207;-79
2020/12/31 06:53:34;;;;;;;2.70;2.42;;;3.60;99.90;;;;;;4977169;28;20203;-79
2020/12/31 06:56:03;;;;;;;2.92;2.67;;;3.60;99.90;;;;;;4973830;28;20219;-79
2020/12/31 06:58:29;;;;;;;2.20;1.85;;;3.60;99.90;;;;;;4973918;28;20171;-79
2020/12/31 07:00:55;;;;;;;3.13;2.10;;;3.60;99.90;;;;;;4974042;28;20211;-79
2020/12/31 07:03:39;;;;;;;2.67;2.45;;;3.60;99.90;;;;;;4981370;28;20186;-78
2020/12/31 07:06:20;;;;;;;3.10;2.00;;;3.70;99.90;;;;;;4972213;28;20563;-78
2020/12/31 07:08:52;;;;;;;2.00;1.73;;;3.60;99.90;;;;;;4992158;28;20183;-78
2020/12/31 07:11:36;;;;;;;3.00;2.10;;;3.60;99.90;;;;;;4987105;28;20202;-78
2020/12/31 07:14:20;;;;;;;3.38;2.50;;;3.60;99.90;;;;;;4976416;28;20206;-79
2020/12/31 07:16:57;;;;;;;3.30;3.00;;;3.60;99.90;;;;;;4976349;28;20238;-79
2020/12/31 07:19:37;;;;;;;3.25;2.35;;;3.60;99.90;;;;;;4993010;28;20280;-78
2020/12/31 07:22:22;;;;;;;1.77;1.50;;;3.60;99.90;;;;;;4984693;28;20218;-79
2020/12/31 07:24:52;;;;;;;2.40;2.20;;;3.60;99.90;;;;;;4981973;28;20178;-78
2020/12/31 07:27:29;;;;;;;2.20;2.00;;;3.60;99.90;;;;;;4989560;28;20210;-78
2020/12/31 07:30:09;;;;;;;2.42;2.22;;;3.50;99.90;;;;;;4974957;28;20233;-78
2020/12/31 07:32:54;;;;;;;3.67;2.50;;;3.50;99.90;;;;;;4991799;28;20218;-77
2020/12/31 07:35:19;;;;;;;2.53;1.95;;;3.50;99.90;;;;;;4985721;28;20226;-78
2020/12/31 07:37:50;;;;;;;3.60;1.83;;;3.50;99.90;;;;;;4976741;28;20194;-78
2020/12/31 07:40:34;;;;;;;2.60;1.95;;;3.60;99.90;;;;;;4988395;28;20172;-79
2020/12/31 07:43:01;;;;;;;2.47;1.85;;;3.60;99.90;;;;;;4974600;28;20203;-78
2020/12/31 07:45:27;;;;;;;3.17;2.00;;;3.50;99.90;;;;;;4990663;28;20201;-78
2020/12/31 07:47:54;;;;;;;2.22;1.92;;;3.50;99.90;;;;;;4978664;28;20225;-79
2020/12/31 07:50:21;;;;;;;2.35;2.03;;;3.50;99.90;;;;;;4982714;28;20178;-79
2020/12/31 07:52:47;;;;;;;2.75;2.20;;;3.50;99.90;;;;;;4992760;28;20198;-78
2020/12/31 07:55:13;;;;;;;2.65;1.98;;;3.50;99.90;;;;;;4992449;28;20195;-78
2020/12/31 07:57:39;;;;;;;3.07;2.60;;;3.50;99.90;;;;;;4983624;28;20206;-79
2020/12/31 08:00:16;;;;;;;2.75;2.30;;;3.50;99.90;;;;;;4977542;28;20438;-78
2020/12/31 08:02:51;;;;;;;3.10;2.63;;;3.50;99.90;;;;;;4986877;28;20236;-78
2020/12/31 08:05:19;;;;;;;3.45;2.30;;;3.50;99.90;;;;;;4980954;28;20548;-79
2020/12/31 08:07:49;;;;;;;3.05;2.70;;;3.50;99.90;;;;;;4983818;28;20650;-77
2020/12/31 08:10:15;;;;;;;3.25;2.20;;;3.50;99.90;;;;;;4972221;28;20203;-78
2020/12/31 08:12:51;;;;;;;3.40;2.70;;;3.40;99.90;;;;;;4987137;28;20625;-78
2020/12/31 08:15:20;;;;;;;3.08;2.22;;;3.50;99.90;;;;;;4985077;28;20241;-78
2020/12/31 08:17:49;;;;;;;2.78;2.45;;;3.50;99.90;;;;;;4989699;28;20713;-79
2020/12/31 08:20:17;;;;;;;5.00;3.20;;;3.50;99.90;;;;;;4980189;28;20175;-79
2020/12/31 08:22:45;;;;;;;3.78;3.22;;;3.50;99.90;;;;;;4982556;28;20301;-79
2020/12/31 08:25:12;;;;;;;4.05;2.30;;;3.50;99.90;;;;;;4973450;28;20167;-78
2020/12/31 08:27:40;;;;;;;5.15;4.05;;;3.50;99.90;;;;;;4972074;28;20621;-79
2020/12/31 08:30:08;;;;;;;5.13;3.40;;;3.50;99.90;;;;;;4986713;28;20671;-79
2020/12/31 08:32:50;;;;;;;5.10;3.50;;;3.50;99.90;;;;;;4971582;28;20629;-78
2020/12/31 08:35:40;;;;;;;4.45;3.55;;;3.50;99.90;;;;;;4971740;28;20269;-78
2020/12/31 08:38:20;;;;;;;6.63;3.45;;;3.50;99.90;;;;;;4961130;28;20210;-78
2020/12/31 08:40:53;;;;;;;8.05;4.57;;;3.50;99.90;;;;;;4983685;28;20246;-79
2020/12/31 08:43:24;;;;;;;5.70;4.07;;;3.50;99.90;;;;;;4977376;28;20385;-79
2020/12/31 08:45:52;;;;;;;6.00;4.85;;;3.60;99.90;;;;;;4973219;28;20235;-77
2020/12/31 08:48:23;;;;;;;5.28;4.22;;;3.50;99.90;;;;;;4993479;28;20206;-78
2020/12/31 08:51:06;;;;;;;4.50;3.90;;;3.60;99.90;;;;;;4991271;28;20217;-78
2020/12/31 08:53:46;;;;;;;4.93;4.40;;;3.60;99.90;;;;;;4994620;28;20241;-78
2020/12/31 08:56:12;;;;;;;5.15;4.20;;;3.60;99.90;;;;;;4975106;28;20300;-79
2020/12/31 08:58:38;;;;;;;4.60;4.13;;;3.60;99.90;;;;;;4985414;28;20189;-79
2020/12/31 09:01:04;;;;;;;5.93;4.63;;;3.60;99.90;;;;;;4973699;28;20199;-79
2020/12/31 09:03:30;;;;;;;5.40;4.00;;;3.60;99.90;;;;;;4985427;28;20191;-78
2020/12/31 09:05:57;;;;;;;5.20;3.80;;;3.60;99.90;;;;;;4987588;28;20448;-78
2020/12/31 09:08:26;;;;;;;4.53;3.83;;;3.60;99.90;;;;;;4987780;28;20534;-78
2020/12/31 09:11:05;;;;;;;4.57;3.45;;;3.60;99.90;;;;;;4973699;28;20241;-79
2020/12/31 09:13:39;;;;;;;4.25;3.70;;;3.60;99.90;;;;;;4991806;28;20248;-80
2020/12/31 09:16:12;;;;;;;2.60;2.05;;;3.60;99.90;;;;;;4981680;28;20219;-81
2020/12/31 09:18:42;;;;;;;3.00;2.65;;;3.60;99.90;;;;;;4975035;28;20167;-81
2020/12/31 09:21:09;;;;;;;2.45;2.22;;;3.60;99.90;;;;;;4974121;28;20211;-81
2020/12/31 09:23:35;;;;;;;2.30;2.10;;;3.50;99.90;;;;;;4974079;28;20191;-81
2020/12/31 09:26:04;;;;;;;2.00;1.90;;;3.60;99.90;;;;;;4989464;28;20206;-80
2020/12/31 09:28:30;;;;;;;2.53;2.33;;;3.50;99.90;;;;;;4993105;28;20213;-80
2020/12/31 09:30:57;;;;;;;3.08;2.10;;;3.50;99.90;;;;;;4984163;28;20302;-81
2020/12/31 09:33:24;;;;;;;2.28;1.83;;;3.50;99.90;;;;;;4978523;28;20188;-80
2020/12/31 09:35:51;;;;;;;2.40;1.67;;;3.50;99.90;;;;;;4992709;28;20215;-80
2020/12/31 09:38:17;;;;;;;2.80;1.75;;;3.50;99.90;;;;;;4993395;28;20206;-80
2020/12/31 09:40:43;;;;;;;2.50;1.95;;;3.60;99.90;;;;;;4992894;28;20210;-81
2020/12/31 09:43:11;;;;;;;1.65;1.50;;;3.60;99.90;;;;;;4973814;28;20645;-81
2020/12/31 09:45:38;;;;;;;1.90;1.20;;;3.50;99.90;;;;;;4973429;28;20178;-81
2020/12/31 09:48:05;;;;;;;1.98;1.55;;;3.50;99.90;;;;;;4973285;28;20168;-82
2020/12/31 09:50:31;;;;;;;1.70;1.30;;;3.60;99.90;;;;;;4984305;28;20234;-80
2020/12/31 09:52:57;;;;;;;1.17;1.07;;;3.50;99.90;;;;;;4984481;28;20203;-80
2020/12/31 09:55:24;;;;;;;1.40;1.13;;;3.50;99.90;;;;;;4974603;28;20452;-79
2020/12/31 09:57:50;;;;;;;1.08;0.98;;;3.30;99.90;;;;;;4978168;28;20202;-81
2020/12/31 10:00:16;;;;;;;1.60;1.05;;;3.30;99.90;;;;;;4992037;28;20194;-79
2020/12/31 10:02:42;;;;;;;2.70;1.27;;;3.30;99.90;;;;;;4994702;28;20289;-79
2020/12/31 10:05:08;;;;;;;1.30;1.20;;;3.30;99.90;;;;;;4978966;28;20254;-79
2020/12/31 10:07:34;;;;;;;1.30;0.80;;;3.30;99.90;;;;;;4994385;28;20735;-81
2020/12/31 10:10:00;;;;;;;1.70;1.33;;;3.20;99.90;;;;;;4993583;28;20197;-79
2020/12/31 10:12:26;;;;;;;1.43;1.00;;;3.10;99.90;;;;;;4995916;28;20469;-81
2020/12/31 10:14:56;;;;;;;1.60;1.30;;;3.10;99.90;;;;;;4996314;28;20437;-81
2020/12/31 10:17:44;;;;;;;1.70;1.30;;;3.00;99.90;;;;;;4995629;28;20206;-81
2020/12/31 10:20:10;;;;;;;1.88;1.77;;;3.00;99.90;;;;;;4975717;28;20182;-80
2020/12/31 10:22:35;;;;;;;1.33;1.10;;;3.00;99.90;;;;;;4988085;28;20692;-80
2020/12/31 10:25:01;;;;;;;1.93;1.33;;;3.10;99.90;;;;;;4990823;28;20171;-79
2020/12/31 10:27:27;;;;;;;2.10;1.40;;;2.90;99.90;;;;;;4986567;28;20265;-79
2020/12/31 10:29:52;;;;;;;2.00;1.40;;;2.90;99.90;;;;;;4993160;28;20545;-79
2020/12/31 10:32:18;;;;;;;2.37;1.67;;;2.90;99.90;;;;;;4992400;28;20290;-79
2020/12/31 10:34:45;;;;;;;2.00;1.60;;;2.90;99.90;;;;;;4986503;28;20210;-80
2020/12/31 10:37:10;;;;;;;2.35;1.52;;;3.00;99.90;;;;;;4980717;28;20622;-78
2020/12/31 10:39:36;;;;;;;5.87;2.13;;;3.00;99.90;;;;;;4986198;28;20261;-79
2020/12/31 10:42:02;;;;;;;3.30;2.03;;;3.00;99.90;;;;;;4988047;28;20301;-78
2020/12/31 10:44:28;;;;;;;3.47;2.60;;;3.10;99.90;;;;;;4983406;28;20936;-79
2020/12/31 10:47:35;;;;;;;3.83;2.10;;;3.10;99.90;;;;;;4978182;28;20210;-79
2020/12/31 10:50:00;;;;;;;2.63;2.30;;;3.10;99.90;;;;;;4973830;28;20175;-80
2020/12/31 10:52:26;;;;;;;2.63;2.00;;;3.20;99.90;;;;;;4977808;28;20269;-80
2020/12/31 10:54:52;;;;;;;2.13;1.90;;;3.20;99.90;;;;;;4992735;28;20174;-79
2020/12/31 10:57:17;;;;;;;2.03;1.83;;;3.20;99.90;;;;;;4979384;28;20317;-80
2020/12/31 10:59:43;;;;;;;2.83;2.10;;;3.20;99.90;;;;;;4991498;28;20174;-77
2020/12/31 11:02:09;;;;;;;5.60;4.23;;;3.20;99.90;;;;;;4981877;28;20302;-78
2020/12/31 11:04:34;;;;;;;2.87;2.67;;;3.20;99.90;;;;;;4990822;28;20221;-78
2020/12/31 11:07:00;;;;;;;5.80;3.10;;;3.20;99.90;;;;;;4983587;28;20238;-78
2020/12/31 11:09:28;;;;;;;2.37;2.17;;;3.20;99.90;;;;;;4974250;28;20194;-78
2020/12/31 11:11:58;;;;;;;1.90;1.80;;;3.20;99.90;;;;;;4989082;28;20672;-78
2020/12/31 11:14:24;;;;;;;4.30;2.35;;;3.30;99.90;;;;;;4980574;28;20175;-78
2020/12/31 11:16:53;;;;;;;5.23;1.90;;;3.30;99.90;;;;;;4973146;28;20379;-77
2020/12/31 11:19:19;;;;;;;2.97;2.55;;;3.30;99.90;;;;;;4980144;28;20170;-78
2020/12/31 11:21:48;;;;;;;2.85;2.40;;;3.30;99.90;;;;;;4975488;28;20214;-78
2020/12/31 11:24:14;;;;;;;3.20;2.50;;;3.50;99.90;;;;;;4974008;28;20254;-78
2020/12/31 11:26:40;;;;;;;3.27;3.00;;;3.60;99.90;;;;;;4976882;28;20647;-79
2020/12/31 11:29:06;;;;;;;2.05;1.90;;;3.60;99.90;;;;;;4972378;28;20583;-79
2020/12/31 11:31:32;;;;;;;6.17;3.10;;;3.70;99.90;;;;;;4972388;28;20294;-79
2020/12/31 11:34:00;;;;;;;2.83;2.50;;;3.70;99.90;;;;;;4971888;28;20449;-78
2020/12/31 11:36:26;;;;;;;2.35;2.13;;;3.80;99.90;;;;;;4973069;28;20466;-79
2020/12/31 11:38:53;;;;;;;2.42;2.22;;;3.90;99.90;;;;;;4973326;28;20179;-79
2020/12/31 11:41:19;;;;;;;5.80;2.67;;;4.10;99.90;;;;;;4973279;28;20221;-78
2020/12/31 11:43:45;;;;;;;2.03;1.83;;;4.20;99.90;;;;;;4973375;28;20191;-78
2020/12/31 11:46:11;;;;;;;2.80;1.80;;;4.30;99.90;;;;;;4971683;28;20206;-78
2020/12/31 11:48:37;;;;;;;2.67;2.15;;;4.40;99.90;;;;;;4973248;28;20163;-77
2020/12/31 11:51:05;;;;;;;1.97;1.40;;;4.40;99.90;;;;;;4972814;28;20302;-78
2020/12/31 11:53:32;;;;;;;3.03;2.42;;;4.40;99.90;;;;;;4972952;28;20469;-78
2020/12/31 11:56:00;;;;;;;2.60;2.40;;;4.50;99.90;;;;;;4972661;28;20298;-78
2020/12/31 11:58:27;;;;;;;3.00;2.70;;;4.60;99.90;;;;;;4973198;28;20167;-78
2020/12/31 12:00:52;;;;;;;3.80;3.00;;;4.50;99.90;;;;;;4971374;28;20214;-78
2020/12/31 12:03:18;;;;;;;3.27;2.67;;;4.50;99.90;;;;;;4973426;28;20680;-77
2020/12/31 12:05:44;;;;;;;3.23;2.93;;;4.50;99.90;;;;;;4972326;28;20206;-77
2020/12/31 12:08:09;;;;;;;2.70;2.50;;;4.50;99.90;;;;;;4971452;28;20541;-77
2020/12/31 12:10:36;;;;;;;3.37;3.07;;;4.60;99.90;;;;;;4972563;28;20246;-77
2020/12/31 12:13:02;;;;;;;3.90;3.50;;;4.60;99.90;;;;;;4972354;28;20594;-79
2020/12/31 12:15:28;;;;;;;3.27;2.97;;;4.70;99.90;;;;;;4972067;28;20206;-77
2020/12/31 12:17:53;;;;;;;2.83;2.37;;;4.70;99.90;;;;;;4971863;28;20550;-78
2020/12/31 12:20:19;;;;;;;2.50;2.23;;;4.70;99.90;;;;;;4970601;28;20198;-78
2020/12/31 12:22:45;;;;;;;3.30;2.20;;;4.80;99.90;;;;;;4988598;28;20732;-77
2020/12/31 12:25:13;;;;;;;3.37;2.50;;;4.80;99.90;;;;;;4979043;28;20175;-78
2020/12/31 12:27:40;;;;;;;5.10;2.65;;;4.80;99.90;;;;;;4989626;28;20452;-77
2020/12/31 12:30:10;;;;;;;3.10;2.80;;;4.90;99.90;;;;;;4992338;28;20675;-77
2020/12/31 12:32:40;;;;;;;3.60;2.55;;;4.80;99.90;;;;;;4983142;28;20210;-77
2020/12/31 12:35:07;;;;;;;6.63;2.90;;;4.80;99.90;;;;;;4986026;28;20198;-78
2020/12/31 12:37:33;;;;;;;2.90;2.60;;;4.70;99.90;;;;;;4989106;28;20214;-78
2020/12/31 12:39:58;;;;;;;2.77;2.33;;;4.70;99.90;;;;;;4977655;28;20163;-78
2020/12/31 12:42:24;;;;;;;2.77;2.43;;;4.60;99.90;;;;;;4990937;28;20512;-78
2020/12/31 12:44:50;;;;;;;4.83;3.00;;;4.60;99.90;;;;;;4979809;28;20293;-78
2020/12/31 12:47:15;;;;;;;3.77;2.37;;;4.60;99.90;;;;;;4971149;28;20219;-78
2020/12/31 12:49:43;;;;;;;2.63;2.43;;;4.60;99.90;;;;;;4972631;28;20250;-78
2020/12/31 12:52:09;;;;;;;3.03;2.20;;;4.60;99.90;;;;;;4970461;28;20726;-78
2020/12/31 12:54:34;;;;;;;3.70;2.53;;;4.50;99.90;;;;;;4989322;28;20317;-78
2020/12/31 12:57:00;;;;;;;2.90;2.10;;;4.50;99.90;;;;;;4984945;28;20305;-77
2020/12/31 12:59:26;;;;;;;2.80;2.50;;;4.50;99.90;;;;;;4982808;28;20257;-78
2020/12/31 13:01:51;;;;;;;4.00;2.80;;;4.40;99.90;;;;;;4978682;28;20214;-79
2020/12/31 13:04:17;;;;;;;3.03;1.90;;;4.40;99.90;;;;;;4979828;28;20225;-79